createdAt,value
2019-02-04T00:01:48.544Z,24.57
2019-02-04T00:04:18.416Z,25.77
2019-02-04T00:06:47.929Z,28.60
2019-02-04T00:09:17.442Z,29.57
2019-02-04T00:11:46.875Z,26.37
2019-02-04T00:14:16.453Z,28.53
2019-02-04T00:16:46.072Z,25.07
2019-02-04T00:19:15.568Z,30.40
2019-02-04T00:21:45.630Z,29.67
2019-02-04T00:24:15.019Z,30.07
2019-02-04T00:26:51.395Z,28.13
2019-02-04T00:29:16.086Z,32.50
2019-02-04T00:31:45.631Z,28.37
2019-02-04T00:34:15.387Z,28.57
2019-02-04T00:36:44.840Z,30.30
2019-02-04T00:39:14.475Z,31.43
2019-02-04T00:41:43.984Z,28.07
2019-02-04T00:44:13.510Z,26.87
2019-02-04T00:46:52.077Z,31.80
2019-02-04T00:49:14.771Z,29.10
2019-02-04T00:51:44.440Z,28.03
2019-02-04T00:54:14.451Z,24.53
2019-02-04T00:56:46.839Z,29.17
2019-02-04T00:59:16.458Z,26.33
2019-02-04T01:01:45.920Z,27.67
2019-02-04T01:04:15.551Z,26.53
2019-02-04T01:06:45.126Z,26.20
2019-02-04T01:09:15.071Z,30.00
2019-02-04T01:11:44.721Z,24.83
2019-02-04T01:14:14.091Z,27.57
2019-02-04T01:16:43.837Z,25.20
2019-02-04T01:19:13.488Z,26.07
2019-02-04T01:21:43.702Z,27.10
2019-02-04T01:24:13.230Z,23.77
2019-02-04T01:26:44.014Z,27.48
2019-02-04T01:29:13.490Z,28.33
2019-02-04T01:31:43.765Z,25.97
2019-02-04T01:34:13.496Z,27.33
2019-02-04T01:36:43.773Z,27.07
2019-02-04T01:39:13.452Z,25.93
2019-02-04T01:41:43.846Z,29.50
2019-02-04T01:44:13.525Z,23.13
2019-02-04T01:46:43.806Z,24.52
2019-02-04T01:49:13.689Z,24.93
2019-02-04T01:51:43.873Z,26.10
2019-02-04T01:54:13.514Z,25.97
2019-02-04T01:56:43.817Z,25.17
2019-02-04T01:59:13.527Z,26.27
2019-02-04T02:01:43.804Z,25.68
2019-02-04T02:04:13.522Z,29.57
2019-02-04T02:06:43.823Z,24.70
2019-02-04T02:09:18.175Z,24.97
2019-02-04T02:11:47.775Z,27.37
2019-02-04T02:14:17.179Z,31.07
2019-02-04T02:16:46.771Z,32.93
2019-02-04T02:19:16.212Z,25.90
2019-02-04T02:21:45.813Z,27.50
2019-02-04T02:24:15.187Z,25.50
2019-02-04T02:26:44.807Z,24.67
2019-02-04T02:29:14.620Z,23.57
2019-02-04T02:31:44.084Z,27.30
2019-02-04T02:34:13.698Z,24.30
2019-02-04T02:36:43.919Z,22.50
2019-02-04T02:39:13.611Z,25.83
2019-02-04T02:41:43.923Z,23.20
2019-02-04T02:44:13.625Z,27.63
2019-02-04T02:46:43.941Z,26.52
2019-02-04T02:49:13.593Z,25.53
2019-02-04T02:51:43.894Z,26.02
2019-02-04T02:54:13.672Z,24.87
2019-02-04T02:56:43.941Z,81.63
2019-02-04T02:59:13.647Z,48.50
2019-02-04T03:01:43.953Z,36.90
2019-02-04T03:04:13.658Z,220.43
2019-02-04T03:06:43.957Z,306.45
2019-02-04T03:09:13.676Z,56.43
2019-02-04T03:11:44.027Z,24.85
2019-02-04T03:14:13.667Z,22.17
2019-02-04T03:16:43.977Z,22.98
2019-02-04T03:19:13.680Z,18.10
2019-02-04T03:21:43.964Z,22.13
2019-02-04T03:24:13.777Z,20.80
2019-02-04T03:26:44.041Z,24.65
2019-02-04T03:29:13.845Z,23.00
2019-02-04T03:31:45.971Z,23.38
2019-02-04T03:34:15.084Z,26.17
2019-02-04T03:36:44.937Z,20.77
2019-02-04T03:39:14.711Z,26.97
2019-02-04T03:41:44.247Z,22.57
2019-02-04T03:44:13.754Z,21.90
2019-02-04T03:46:44.018Z,23.47
2019-02-04T03:49:13.740Z,21.87
2019-02-04T03:51:44.005Z,19.37
2019-02-04T03:54:13.719Z,22.90
2019-02-04T03:56:44.034Z,22.80
2019-02-04T03:59:13.752Z,22.77
2019-02-04T04:01:44.048Z,22.00
2019-02-04T04:04:13.783Z,24.90
2019-02-04T04:06:44.001Z,26.57
2019-02-04T04:09:13.785Z,24.77
2019-02-04T04:11:44.039Z,22.32
2019-02-04T04:14:13.785Z,19.80
2019-02-04T04:16:44.025Z,20.48
2019-02-04T04:19:13.800Z,23.37
2019-02-04T04:21:44.037Z,24.45
2019-02-04T04:24:13.812Z,19.97
2019-02-04T04:26:44.046Z,21.95
2019-02-04T04:29:13.792Z,22.83
2019-02-04T04:31:44.085Z,21.62
2019-02-04T04:34:13.826Z,20.50
2019-02-04T04:36:44.078Z,21.00
2019-02-04T04:39:13.853Z,19.90
2019-02-04T04:41:44.082Z,24.52
2019-02-04T04:44:13.803Z,20.00
2019-02-04T04:46:44.168Z,25.52
2019-02-04T04:49:13.886Z,22.13
2019-02-04T04:51:44.112Z,23.27
2019-02-04T04:54:13.896Z,25.60
2019-02-04T04:56:44.134Z,23.10
2019-02-04T04:59:13.878Z,27.13
2019-02-04T05:01:44.118Z,22.02
2019-02-04T05:04:13.503Z,25.23
2019-02-04T05:06:44.126Z,31.05
2019-02-04T05:09:13.838Z,25.73
2019-02-04T05:11:44.142Z,22.80
2019-02-04T05:14:13.986Z,23.33
2019-02-04T05:16:44.263Z,26.30
2019-02-04T05:19:13.914Z,24.30
2019-02-04T05:21:44.150Z,21.30
2019-02-04T05:24:13.862Z,27.47
2019-02-04T05:26:44.094Z,22.23
2019-02-04T05:29:13.867Z,23.87
2019-02-04T05:31:44.156Z,21.07
2019-02-04T05:34:13.948Z,26.37
2019-02-04T05:36:44.173Z,23.05
2019-02-04T05:39:13.963Z,25.20
2019-02-04T05:41:44.199Z,25.27
2019-02-04T05:44:13.969Z,25.03
2019-02-04T05:46:44.181Z,27.58
2019-02-04T05:49:13.991Z,22.57
2019-02-04T05:51:44.227Z,25.30
2019-02-04T05:54:13.977Z,25.00
2019-02-04T05:56:44.211Z,24.47
2019-02-04T05:59:13.936Z,30.10
2019-02-04T06:01:44.203Z,26.62
2019-02-04T06:04:13.931Z,25.10
2019-02-04T06:06:44.217Z,24.80
2019-02-04T06:09:13.987Z,24.83
2019-02-04T06:11:44.227Z,26.95
2019-02-04T06:14:14.013Z,28.00
2019-02-04T06:16:44.239Z,30.23
2019-02-04T06:19:14.022Z,29.67
2019-02-04T06:21:44.194Z,29.17
2019-02-04T06:24:13.641Z,28.57
2019-02-04T06:26:44.280Z,29.60
2019-02-04T06:29:14.042Z,23.07
2019-02-04T06:31:44.271Z,27.13
2019-02-04T06:34:13.663Z,24.87
2019-02-04T06:36:44.268Z,22.87
2019-02-04T06:39:14.074Z,20.87
2019-02-04T06:41:44.303Z,20.68
2019-02-04T06:44:14.067Z,24.93
2019-02-04T06:46:44.294Z,24.80
2019-02-04T06:49:14.070Z,22.53
2019-02-04T06:51:44.307Z,22.35
2019-02-04T06:54:14.068Z,21.83
2019-02-04T06:56:44.323Z,24.05
2019-02-04T06:59:13.718Z,23.47
2019-02-04T07:01:44.327Z,24.52
2019-02-04T07:04:14.099Z,28.53
2019-02-04T07:06:44.321Z,25.02
2019-02-04T07:09:14.109Z,28.20
2019-02-04T07:11:44.339Z,25.40
2019-02-04T07:14:13.696Z,22.80
2019-02-04T07:16:44.391Z,22.60
2019-02-04T07:19:23.761Z,22.97
2019-02-04T07:21:45.353Z,23.93
2019-02-04T07:24:15.128Z,26.27
2019-02-04T07:26:44.674Z,22.50
2019-02-04T07:29:14.163Z,25.80
2019-02-04T07:31:44.631Z,27.23
2019-02-04T07:34:14.152Z,26.47
2019-02-04T07:36:44.424Z,22.93
2019-02-04T07:39:14.188Z,23.60
2019-02-04T07:41:44.415Z,25.97
2019-02-04T07:44:14.154Z,22.93
2019-02-04T07:46:44.364Z,23.00
2019-02-04T07:49:14.090Z,24.13
2019-02-04T07:51:44.412Z,27.37
2019-02-04T07:54:14.098Z,24.33
2019-02-04T07:56:44.463Z,21.80
2019-02-04T07:59:14.188Z,21.70
2019-02-04T08:01:44.521Z,21.68
2019-02-04T08:04:14.190Z,21.13
2019-02-04T08:06:44.474Z,17.27
2019-02-04T08:09:14.272Z,18.53
2019-02-04T08:11:44.490Z,18.90
2019-02-04T08:14:14.311Z,17.13
2019-02-04T08:16:44.544Z,19.20
2019-02-04T08:19:14.216Z,16.03
2019-02-04T08:21:44.506Z,18.57
2019-02-04T08:24:14.217Z,16.20
2019-02-04T08:26:44.515Z,18.32
2019-02-04T08:29:14.224Z,21.20
2019-02-04T08:31:44.516Z,14.47
2019-02-04T08:34:14.236Z,18.50
2019-02-04T08:36:46.447Z,19.80
2019-02-04T08:39:15.758Z,16.20
2019-02-04T08:41:45.495Z,22.37
2019-02-04T08:44:15.208Z,18.10
2019-02-04T08:46:44.777Z,24.47
2019-02-04T08:49:14.279Z,23.80
2019-02-04T08:51:44.544Z,20.60
2019-02-04T08:54:14.263Z,22.93
2019-02-04T08:56:44.555Z,21.97
2019-02-04T08:59:14.263Z,19.80
2019-02-04T09:01:44.547Z,26.20
2019-02-04T09:04:14.281Z,17.43
2019-02-04T09:06:44.557Z,17.82
2019-02-04T09:09:14.215Z,17.53
2019-02-04T09:11:44.494Z,19.17
2019-02-04T09:14:14.283Z,18.20
2019-02-04T09:16:44.569Z,14.25
2019-02-04T09:19:14.288Z,14.07
2019-02-04T09:21:44.574Z,15.75
2019-02-04T09:24:14.249Z,13.80
2019-02-04T09:26:44.631Z,13.98
2019-02-04T09:29:14.312Z,13.57
2019-02-04T09:31:44.589Z,12.70
2019-02-04T09:34:14.273Z,13.83
2019-02-04T09:36:44.606Z,15.48
2019-02-04T09:39:14.347Z,12.80
2019-02-04T09:41:44.602Z,14.25
2019-02-04T09:44:14.341Z,10.87
2019-02-04T09:46:44.607Z,12.20
2019-02-04T09:49:14.286Z,10.97
2019-02-04T09:51:44.640Z,12.98
2019-02-04T09:54:14.364Z,13.03
2019-02-04T09:56:44.664Z,16.00
2019-02-04T09:59:14.363Z,13.37
2019-02-04T10:01:44.636Z,14.38
2019-02-04T10:04:14.315Z,12.27
2019-02-04T10:06:44.654Z,13.88
2019-02-04T10:09:14.379Z,10.23
2019-02-04T10:11:44.643Z,10.35
2019-02-04T10:14:14.340Z,15.07
2019-02-04T10:16:44.652Z,14.35
2019-02-04T10:19:14.406Z,11.63
2019-02-04T10:21:44.633Z,11.85
2019-02-04T10:24:14.449Z,16.30
2019-02-04T10:26:44.656Z,11.53
2019-02-04T10:29:14.380Z,13.67
2019-02-04T10:31:44.655Z,12.37
2019-02-04T10:34:14.436Z,12.77
2019-02-04T10:36:44.761Z,12.37
2019-02-04T10:39:14.453Z,12.17
2019-02-04T10:41:44.689Z,13.45
2019-02-04T10:44:14.519Z,13.77
2019-02-04T10:46:44.699Z,15.90
2019-02-04T10:49:14.500Z,15.07
2019-02-04T10:51:44.697Z,12.98
2019-02-04T10:54:14.471Z,16.17
2019-02-04T10:56:44.744Z,11.43
2019-02-04T10:59:14.504Z,14.57
2019-02-04T11:01:44.730Z,16.10
2019-02-04T11:04:14.593Z,12.63
2019-02-04T11:06:44.845Z,19.48
2019-02-04T11:09:14.555Z,13.63
2019-02-04T11:11:44.947Z,20.85
2019-02-04T11:14:14.561Z,18.00
2019-02-04T11:16:44.797Z,19.52
2019-02-04T11:19:14.474Z,15.03
2019-02-04T11:21:44.780Z,14.50
2019-02-04T11:24:14.573Z,14.17
2019-02-04T11:26:44.773Z,16.40
2019-02-04T11:29:14.556Z,16.67
2019-02-04T11:31:44.695Z,15.40
2019-02-04T11:34:14.096Z,16.03
2019-02-04T11:36:44.810Z,14.25
2019-02-04T11:39:14.494Z,16.13
2019-02-04T11:41:44.776Z,15.95
2019-02-04T11:44:14.548Z,15.30
2019-02-04T11:46:44.809Z,17.60
2019-02-04T11:49:14.483Z,20.70
2019-02-04T11:51:44.779Z,14.00
2019-02-04T11:54:14.524Z,14.93
2019-02-04T11:56:44.805Z,16.67
2019-02-04T11:59:14.579Z,15.53
2019-02-04T12:01:44.823Z,19.67
2019-02-04T12:04:14.535Z,14.23
2019-02-04T12:06:45.743Z,15.03
2019-02-04T12:09:15.615Z,16.37
2019-02-04T12:11:45.124Z,13.93
2019-02-04T12:14:14.603Z,11.97
2019-02-04T12:16:44.839Z,15.65
2019-02-04T12:19:14.633Z,14.50
2019-02-04T12:21:44.854Z,15.03
2019-02-04T12:24:14.563Z,11.13
2019-02-04T12:26:44.841Z,12.85
2019-02-04T12:29:14.572Z,14.57
2019-02-04T12:31:44.898Z,14.05
2019-02-04T12:34:14.633Z,12.33
2019-02-04T12:36:44.852Z,11.85
2019-02-04T12:39:19.152Z,13.97
2019-02-04T12:41:50.644Z,12.80
2019-02-04T12:44:19.897Z,11.23
2019-02-04T12:46:49.607Z,13.60
2019-02-04T12:49:20.015Z,13.40
2019-02-04T12:51:49.762Z,11.73
2019-02-04T12:54:19.662Z,12.60
2019-02-04T12:56:49.087Z,13.23
2019-02-04T12:59:18.679Z,12.00
2019-02-04T13:01:48.171Z,13.73
2019-02-04T13:04:17.695Z,10.43
2019-02-04T13:06:47.191Z,13.83
2019-02-04T13:09:16.762Z,14.83
2019-02-04T13:11:46.246Z,13.67
2019-02-04T13:14:15.775Z,18.73
2019-02-04T13:16:45.304Z,16.03
2019-02-04T13:19:14.804Z,32.27
2019-02-04T13:21:45.818Z,15.40
2019-02-04T13:24:15.287Z,14.90
2019-02-04T13:26:45.088Z,14.93
2019-02-04T13:29:14.746Z,12.90
2019-02-04T13:31:44.986Z,12.07
2019-02-04T13:34:14.650Z,12.67
2019-02-04T13:36:44.940Z,15.87
2019-02-04T13:39:14.730Z,15.60
2019-02-04T13:41:44.994Z,15.35
2019-02-04T13:44:14.358Z,14.67
2019-02-04T13:46:45.017Z,16.05
2019-02-04T13:49:14.743Z,14.70
2019-02-04T13:51:56.886Z,17.65
2019-02-04T13:54:16.155Z,19.03
2019-02-04T13:56:45.964Z,18.77
2019-02-04T13:59:15.750Z,19.67
2019-02-04T14:01:45.215Z,19.17
2019-02-04T14:04:14.969Z,20.03
2019-02-04T14:06:44.967Z,28.67
2019-02-04T14:09:17.710Z,17.60
2019-02-04T14:11:47.218Z,18.40
2019-02-04T14:14:16.769Z,15.27
2019-02-04T14:16:46.406Z,15.43
2019-02-04T14:19:15.842Z,17.80
2019-02-04T14:21:45.232Z,15.57
2019-02-04T14:24:14.792Z,16.17
2019-02-04T14:26:45.042Z,26.05
2019-02-04T14:29:14.774Z,27.90
2019-02-04T14:31:45.126Z,18.32
2019-02-04T14:34:14.810Z,31.10
2019-02-04T14:36:45.086Z,20.35
2019-02-04T14:39:15.175Z,32.27
2019-02-04T14:41:45.130Z,29.20
2019-02-04T14:44:17.892Z,23.57
2019-02-04T14:46:53.348Z,23.30
2019-02-04T14:49:37.882Z,31.07
2019-02-04T14:52:21.392Z,14.43
2019-02-04T14:55:05.922Z,13.90
2019-02-04T14:57:46.821Z,13.67
2019-02-04T15:00:36.291Z,15.10
2019-02-04T15:03:34.671Z,14.90
2019-02-04T15:06:25.137Z,14.53
2019-02-04T15:09:04.645Z,16.80
2019-02-04T15:11:52.213Z,14.07
2019-02-04T15:14:44.355Z,15.43
2019-02-04T15:17:17.166Z,15.90
2019-02-04T15:20:23.254Z,14.73
2019-02-04T15:23:10.994Z,15.33
2019-02-04T15:26:06.153Z,20.50
2019-02-04T15:29:03.139Z,32.30
2019-02-04T15:31:52.226Z,20.47
2019-02-04T15:34:41.576Z,18.83
2019-02-04T15:37:23.149Z,14.90
2019-02-04T15:40:02.327Z,14.03
2019-02-04T15:42:41.008Z,17.00
2019-02-04T15:45:34.504Z,20.80
2019-02-04T15:48:04.351Z,21.90
2019-02-04T15:50:48.983Z,16.40
2019-02-04T15:53:18.485Z,21.83
2019-02-04T15:55:48.153Z,19.47
2019-02-04T15:58:17.597Z,22.50
2019-02-04T16:00:47.443Z,16.23
2019-02-04T16:03:16.955Z,19.07
2019-02-04T16:05:46.521Z,23.10
2019-02-04T16:08:15.968Z,22.30
2019-02-04T16:10:45.441Z,26.33
2019-02-04T16:13:15.081Z,17.87
2019-02-04T16:15:45.231Z,25.70
2019-02-04T16:18:14.928Z,28.30
2019-02-04T16:20:45.260Z,24.02
2019-02-04T16:23:14.980Z,27.30
2019-02-04T16:25:45.274Z,19.30
2019-02-04T16:28:14.982Z,24.60
2019-02-04T16:30:45.299Z,18.40
2019-02-04T16:33:15.010Z,24.87
2019-02-04T16:35:45.275Z,22.70
2019-02-04T16:38:14.996Z,23.70
2019-02-04T16:40:45.301Z,21.93
2019-02-04T16:43:15.110Z,20.07
2019-02-04T16:45:45.372Z,21.42
2019-02-04T16:48:15.015Z,22.77
2019-02-04T16:50:58.897Z,18.77
2019-02-04T16:53:16.415Z,20.63
2019-02-04T16:55:46.082Z,24.50
2019-02-04T16:58:15.583Z,23.70
2019-02-04T17:00:45.544Z,20.00
2019-02-04T17:03:15.038Z,19.23
2019-02-04T17:05:45.277Z,21.42
2019-02-04T17:08:14.988Z,20.30
2019-02-04T17:10:45.279Z,19.10
2019-02-04T17:13:14.989Z,22.77
2019-02-04T17:15:45.273Z,26.07
2019-02-04T17:18:15.047Z,21.70
2019-02-04T17:20:45.282Z,30.32
2019-02-04T17:23:22.072Z,21.27
2019-02-04T17:25:46.295Z,20.40
2019-02-04T17:28:16.083Z,21.77
2019-02-04T17:30:45.607Z,26.80
2019-02-04T17:33:15.139Z,21.57
2019-02-04T17:35:45.359Z,25.20
2019-02-04T17:38:15.110Z,23.57
2019-02-04T17:40:45.619Z,22.20
2019-02-04T17:43:15.175Z,23.53
2019-02-04T17:45:45.407Z,23.65
2019-02-04T17:48:15.171Z,22.83
2019-02-04T17:50:45.495Z,23.45
2019-02-04T17:53:15.339Z,23.23
2019-02-04T17:55:45.345Z,24.37
2019-02-04T17:58:14.805Z,24.10
2019-02-04T18:00:47.049Z,23.05
2019-02-04T18:03:16.596Z,32.17
2019-02-04T18:05:46.428Z,26.57
2019-02-04T18:08:16.247Z,32.50
2019-02-04T18:10:45.696Z,34.43
2019-02-04T18:13:15.245Z,47.97
2019-02-04T18:15:45.478Z,64.53
2019-02-04T18:18:15.193Z,63.13
2019-02-04T18:20:45.446Z,29.27
2019-02-04T18:23:15.116Z,31.63
2019-02-04T18:25:45.416Z,27.27
2019-02-04T18:28:15.242Z,31.27
2019-02-04T18:30:45.478Z,31.33
2019-02-04T18:33:15.185Z,42.17
2019-02-04T18:35:45.423Z,33.23
2019-02-04T18:38:15.236Z,41.90
2019-02-04T18:40:45.512Z,38.03
2019-02-04T18:43:15.290Z,40.80
2019-02-04T18:45:45.579Z,29.55
2019-02-04T18:48:15.222Z,34.10
2019-02-04T18:50:45.451Z,26.23
2019-02-04T18:53:15.183Z,25.60
2019-02-04T18:55:45.468Z,30.10
2019-02-04T18:58:15.243Z,28.00
2019-02-04T19:00:45.606Z,36.13
2019-02-04T19:03:17.430Z,35.43
2019-02-04T19:05:46.432Z,43.40
2019-02-04T19:08:16.225Z,43.37
2019-02-04T19:10:45.744Z,43.60
2019-02-04T19:13:15.288Z,44.67
2019-02-04T19:15:45.448Z,49.07
2019-02-04T19:18:18.604Z,41.60
2019-02-04T19:20:47.252Z,43.73
2019-02-04T19:23:16.791Z,34.00
2019-02-04T19:25:46.461Z,30.27
2019-02-04T19:28:16.225Z,39.77
2019-02-04T19:30:49.004Z,114.07
2019-02-04T19:33:18.486Z,64.90
2019-02-04T19:35:48.279Z,59.23
2019-02-04T19:38:17.723Z,114.90
2019-02-04T19:40:47.491Z,110.37
2019-02-04T19:43:17.264Z,61.90
2019-02-04T19:45:46.752Z,74.40
2019-02-04T19:48:16.272Z,46.60
2019-02-04T19:50:45.737Z,34.93
2019-02-04T19:53:15.290Z,31.37
2019-02-04T19:55:45.561Z,27.37
2019-02-04T19:58:15.292Z,29.70
2019-02-04T20:00:45.562Z,29.92
2019-02-04T20:03:15.349Z,34.37
2019-02-04T20:05:45.622Z,32.75
2019-02-04T20:08:15.346Z,36.67
2019-02-04T20:10:45.682Z,28.50
2019-02-04T20:13:15.326Z,30.37
2019-02-04T20:15:45.686Z,32.58
2019-02-04T20:18:15.334Z,30.20
2019-02-04T20:20:45.655Z,34.15
2019-02-04T20:23:15.380Z,32.33
2019-02-04T20:25:45.750Z,30.68
2019-02-04T20:28:15.420Z,31.97
2019-02-04T20:30:46.666Z,29.05
2019-02-04T20:33:16.371Z,30.00
2019-02-04T20:35:45.915Z,26.93
2019-02-04T20:38:15.426Z,27.87
2019-02-04T20:40:45.653Z,26.90
2019-02-04T20:43:15.394Z,33.93
2019-02-04T20:45:45.653Z,24.47
2019-02-04T20:48:15.337Z,22.27
2019-02-04T20:50:49.873Z,24.98
2019-02-04T20:53:19.398Z,24.30
2019-02-04T20:55:48.949Z,25.50
2019-02-04T20:58:18.581Z,24.50
2019-02-04T21:00:48.083Z,22.70
2019-02-04T21:03:17.958Z,25.40
2019-02-04T21:05:47.646Z,21.97
2019-02-04T21:08:17.686Z,25.77
2019-02-04T21:10:47.894Z,23.87
2019-02-04T21:13:17.533Z,26.13
2019-02-04T21:15:47.024Z,23.20
2019-02-04T21:18:16.538Z,25.83
2019-02-04T21:20:46.046Z,23.30
2019-02-04T21:23:15.887Z,23.33
2019-02-04T21:25:46.028Z,40.57
2019-02-04T21:28:15.624Z,34.27
2019-02-04T21:30:45.790Z,32.40
2019-02-04T21:33:15.446Z,33.30
2019-02-04T21:35:45.750Z,34.88
2019-02-04T21:38:15.460Z,33.53
2019-02-04T21:40:45.722Z,27.82
2019-02-04T21:43:15.530Z,30.80
2019-02-04T21:45:45.756Z,28.32
2019-02-04T21:48:15.474Z,28.43
2019-02-04T21:50:45.738Z,30.68
2019-02-04T21:53:15.490Z,31.77
2019-02-04T21:55:45.740Z,29.30
2019-02-04T21:58:15.437Z,26.90
2019-02-04T22:00:45.779Z,26.90
2019-02-04T22:03:15.538Z,30.37
2019-02-04T22:05:45.822Z,24.87
2019-02-04T22:08:15.488Z,23.30
2019-02-04T22:10:45.757Z,27.03
2019-02-04T22:13:15.549Z,23.53
2019-02-04T22:15:45.775Z,24.17
2019-02-04T22:18:15.503Z,25.77
2019-02-04T22:20:45.766Z,27.70
2019-02-04T22:23:15.514Z,30.53
2019-02-04T22:25:46.215Z,28.20
2019-02-04T22:28:15.755Z,25.67
2019-02-04T22:30:45.927Z,27.60
2019-02-04T22:33:15.533Z,27.70
2019-02-04T22:35:46.028Z,25.07
2019-02-04T22:38:16.361Z,24.90
2019-02-04T22:40:45.883Z,23.70
2019-02-04T22:43:15.625Z,26.33
2019-02-04T22:45:45.851Z,24.07
2019-02-04T22:48:15.613Z,26.33
2019-02-04T22:50:45.931Z,25.23
2019-02-04T22:53:15.617Z,24.30
2019-02-04T22:55:45.847Z,25.55
2019-02-04T22:58:15.694Z,23.57
2019-02-04T23:01:07.219Z,26.05
2019-02-04T23:03:36.671Z,26.07
2019-02-04T23:06:06.118Z,24.93
2019-02-04T23:08:36.070Z,23.40
2019-02-04T23:11:05.651Z,25.80
2019-02-04T23:13:35.706Z,32.43
2019-02-04T23:16:05.128Z,25.77
2019-02-04T23:18:34.709Z,25.97
2019-02-04T23:21:04.211Z,24.50
2019-02-04T23:23:34.046Z,26.63
2019-02-04T23:26:03.805Z,27.57
2019-02-04T23:28:33.629Z,26.27
2019-02-04T23:31:03.145Z,27.60
2019-02-04T23:33:34.089Z,27.13
2019-02-04T23:36:03.992Z,25.20
2019-02-04T23:38:33.726Z,24.33
2019-02-04T23:41:03.308Z,25.20
2019-02-04T23:43:32.912Z,23.80
2019-02-04T23:46:02.877Z,26.20
2019-02-04T23:48:32.358Z,27.60
2019-02-04T23:51:01.856Z,22.33
2019-02-04T23:53:31.334Z,24.53
2019-02-04T23:56:01.089Z,25.27
2019-02-04T23:58:30.746Z,29.03
